METAR Data
IDs: Format: Raw Decoded Include TAF

Data at: 0939 UTC 28 Jul 2021

EDDV 280920Z 21010KT 180V240 9999 SCT025 21/15 Q1010 NOSIG

TAF EDDV 280500Z 2806/2906 20004KT 9999 FEW040
  BECMG 2806/2808 22011KT
  TEMPO 2808/2819 22015G25KT
  PROB30
  TEMPO 2810/2818 SHRA BKN020CB
  BECMG 2819/2821 20005KT
  BECMG 2904/2906 21010KT